createdAt,value
2022-08-14T00:00:26.740Z,22.90
2022-08-14T00:03:31.183Z,22.60
2022-08-14T00:06:28.334Z,22.40
2022-08-14T00:09:08.057Z,22.30
2022-08-14T00:11:56.959Z,22.20
2022-08-14T00:14:44.484Z,22.10
2022-08-14T00:17:34.813Z,22.10
2022-08-14T00:20:31.084Z,22.00
2022-08-14T00:23:17.319Z,22.00
2022-08-14T00:26:06.591Z,22.00
2022-08-14T00:28:54.482Z,21.80
2022-08-14T00:31:45.771Z,21.70
2022-08-14T00:34:37.663Z,21.60
2022-08-14T00:37:20.062Z,21.50
2022-08-14T00:40:27.643Z,21.50
2022-08-14T00:42:58.240Z,21.50
2022-08-14T00:45:52.536Z,21.40
2022-08-14T00:48:38.245Z,21.40
2022-08-14T00:51:25.664Z,21.50
2022-08-14T00:54:21.496Z,21.60
2022-08-14T00:57:06.028Z,21.70
2022-08-14T00:59:53.555Z,21.70
2022-08-14T01:02:44.272Z,21.80
2022-08-14T01:05:41.768Z,21.80
2022-08-14T01:08:51.495Z,21.80
2022-08-14T01:11:19.541Z,21.80
2022-08-14T01:14:25.202Z,21.90
2022-08-14T01:16:55.573Z,21.90
2022-08-14T01:20:01.345Z,22.00
2022-08-14T01:22:51.413Z,22.10
2022-08-14T01:25:40.166Z,22.10
2022-08-14T01:28:46.601Z,22.20
2022-08-14T01:31:19.741Z,22.20
2022-08-14T01:35:17.180Z,22.30
2022-08-14T01:36:57.470Z,22.40
2022-08-14T01:39:45.431Z,22.40
2022-08-14T01:42:36.199Z,22.50
2022-08-14T01:45:25.580Z,22.50
2022-08-14T01:48:13.327Z,22.60
2022-08-14T01:51:03.662Z,22.60
2022-08-14T01:53:55.632Z,22.60
2022-08-14T01:56:44.712Z,22.70
2022-08-14T01:59:37.489Z,22.70
2022-08-14T02:02:24.123Z,22.80
2022-08-14T02:05:14.036Z,22.80
2022-08-14T02:08:09.847Z,22.80
2022-08-14T02:10:52.371Z,22.80
2022-08-14T02:13:40.220Z,22.80
2022-08-14T02:16:33.460Z,22.70
2022-08-14T02:19:27.163Z,22.70
2022-08-14T02:22:16.336Z,22.80
2022-08-14T02:25:05.739Z,22.80
2022-08-14T02:28:23.428Z,22.90
2022-08-14T02:30:44.569Z,22.90
2022-08-14T02:33:33.551Z,22.90
2022-08-14T02:37:05.096Z,22.90
2022-08-14T02:39:11.868Z,22.90
2022-08-14T02:42:01.053Z,22.90
2022-08-14T02:44:50.084Z,22.80
2022-08-14T02:47:39.073Z,22.80
2022-08-14T02:50:28.197Z,22.80
2022-08-14T02:53:17.097Z,22.80
2022-08-14T02:56:29.546Z,22.70
2022-08-14T02:58:55.649Z,22.80
2022-08-14T03:01:50.954Z,22.80
2022-08-14T03:04:31.935Z,22.80
2022-08-14T03:07:20.171Z,22.80
2022-08-14T03:10:28.037Z,22.80
2022-08-14T03:12:59.083Z,22.80
2022-08-14T03:15:50.929Z,22.80
2022-08-14T03:18:41.526Z,22.80
2022-08-14T03:21:34.293Z,22.70
2022-08-14T03:24:23.759Z,22.70
2022-08-14T03:27:12.770Z,22.70
2022-08-14T03:30:00.407Z,22.80
2022-08-14T03:32:49.249Z,22.80
2022-08-14T03:36:05.699Z,22.70
2022-08-14T03:39:13.788Z,22.60
2022-08-14T03:41:25.467Z,22.60
2022-08-14T03:45:27.428Z,22.40
2022-08-14T03:47:03.178Z,22.30
2022-08-14T03:49:50.605Z,22.30
2022-08-14T03:52:40.826Z,22.20
2022-08-14T03:55:28.665Z,22.20
2022-08-14T03:58:23.813Z,22.20
2022-08-14T04:01:07.010Z,22.20
2022-08-14T04:03:58.384Z,22.10
2022-08-14T04:06:48.541Z,22.10
2022-08-14T04:09:35.322Z,22.10
2022-08-14T04:12:26.467Z,22.10
2022-08-14T04:15:14.994Z,22.10
2022-08-14T04:18:08.498Z,22.00
2022-08-14T04:20:58.113Z,22.00
2022-08-14T04:23:49.062Z,21.90
2022-08-14T04:26:41.989Z,21.90
2022-08-14T04:29:26.034Z,21.90
2022-08-14T04:33:00.248Z,21.90
2022-08-14T04:35:07.515Z,21.90
2022-08-14T04:38:35.980Z,21.90
2022-08-14T04:41:18.743Z,21.90
2022-08-14T04:44:07.423Z,21.90
2022-08-14T04:47:14.879Z,21.90
2022-08-14T04:50:04.497Z,22.00
2022-08-14T04:52:53.987Z,22.00
2022-08-14T04:55:42.878Z,21.90
2022-08-14T04:58:33.820Z,21.80
2022-08-14T05:01:21.083Z,21.70
2022-08-14T05:04:08.762Z,21.80
2022-08-14T05:06:57.711Z,21.80
2022-08-14T05:09:48.029Z,21.90
2022-08-14T05:13:12.655Z,22.00
2022-08-14T05:15:22.968Z,22.10
2022-08-14T05:18:17.298Z,22.20
2022-08-14T05:22:00.241Z,22.30
2022-08-14T05:23:56.497Z,22.30
2022-08-14T05:26:46.192Z,22.50
2022-08-14T05:29:35.215Z,22.50
2022-08-14T05:32:27.440Z,22.60
2022-08-14T05:35:12.996Z,22.70
2022-08-14T05:38:10.713Z,22.80
2022-08-14T05:40:53.013Z,22.90
2022-08-14T05:43:42.744Z,23.00
2022-08-14T05:46:31.956Z,23.00
2022-08-14T05:49:20.614Z,23.10
2022-08-14T05:52:09.750Z,23.20
2022-08-14T05:54:58.117Z,23.30
2022-08-14T05:57:51.180Z,23.40
2022-08-14T06:00:42.164Z,23.50
2022-08-14T06:03:29.454Z,23.50
2022-08-14T06:06:18.620Z,23.50
2022-08-14T06:09:09.690Z,23.60
2022-08-14T06:11:57.702Z,23.60
2022-08-14T06:14:45.220Z,23.70
2022-08-14T06:17:46.348Z,23.80
2022-08-14T06:20:25.083Z,23.70
2022-08-14T06:23:12.547Z,23.70
2022-08-14T06:26:01.606Z,23.80
2022-08-14T06:28:51.989Z,23.90
2022-08-14T06:31:38.318Z,24.00
2022-08-14T06:35:04.466Z,24.10
2022-08-14T06:37:17.158Z,24.20
2022-08-14T06:40:04.975Z,24.30
2022-08-14T06:42:52.989Z,24.40
2022-08-14T06:45:43.395Z,24.40
2022-08-14T06:48:32.691Z,24.50
2022-08-14T06:51:21.235Z,24.60
2022-08-14T06:54:09.961Z,24.60
2022-08-14T06:56:57.514Z,24.40
2022-08-14T06:59:45.284Z,24.50
2022-08-14T07:02:50.398Z,24.70
2022-08-14T07:05:55.967Z,24.90
2022-08-14T07:08:36.095Z,25.00
2022-08-14T07:11:23.680Z,25.10
2022-08-14T07:14:12.739Z,25.10
2022-08-14T07:17:01.892Z,25.00
2022-08-14T07:19:50.604Z,25.00
2022-08-14T07:22:56.020Z,25.10
2022-08-14T07:25:32.690Z,25.30
2022-08-14T07:28:25.512Z,25.30
2022-08-14T07:31:13.895Z,25.40
2022-08-14T07:34:04.142Z,25.40
2022-08-14T07:36:57.914Z,25.50
2022-08-14T07:39:43.977Z,25.60
2022-08-14T07:42:32.471Z,25.80
2022-08-14T07:45:20.465Z,25.80
2022-08-14T07:48:09.660Z,25.70
2022-08-14T07:51:02.985Z,25.70
2022-08-14T07:53:48.171Z,25.90
2022-08-14T07:56:48.312Z,25.90
2022-08-14T07:59:41.308Z,25.90
2022-08-14T08:02:19.583Z,26.00
2022-08-14T08:05:06.165Z,26.00
2022-08-14T08:07:54.843Z,26.10
2022-08-14T08:11:01.714Z,26.30
2022-08-14T08:13:34.774Z,26.50
2022-08-14T08:16:24.444Z,26.30
2022-08-14T08:19:14.009Z,26.40
2022-08-14T08:22:02.386Z,26.50
2022-08-14T08:24:50.338Z,26.60
2022-08-14T08:27:41.887Z,26.70
2022-08-14T08:30:31.980Z,26.60
2022-08-14T08:33:21.799Z,26.70
2022-08-14T08:36:18.644Z,26.90
2022-08-14T08:39:18.457Z,27.00
2022-08-14T08:41:53.841Z,27.00
2022-08-14T08:44:41.249Z,27.00
2022-08-14T08:47:41.379Z,27.00
2022-08-14T08:53:18.431Z,27.10
2022-08-14T08:56:06.043Z,27.10
2022-08-14T08:58:53.962Z,27.00
2022-08-14T09:01:43.038Z,26.90
2022-08-14T09:04:33.378Z,27.10
2022-08-14T09:07:20.421Z,27.20
2022-08-14T09:10:08.757Z,27.20
2022-08-14T09:12:56.217Z,27.50
2022-08-14T09:15:45.787Z,27.70
2022-08-14T09:18:33.077Z,27.90
2022-08-14T09:21:24.289Z,28.00
2022-08-14T09:24:28.555Z,27.80
2022-08-14T09:27:01.314Z,28.10
2022-08-14T09:29:54.000Z,28.20
2022-08-14T09:33:06.041Z,28.40
2022-08-14T09:36:03.364Z,28.40
2022-08-14T09:39:28.765Z,28.70
2022-08-14T09:42:35.867Z,29.00
2022-08-14T09:45:53.115Z,29.30
2022-08-14T09:48:31.399Z,29.70
2022-08-14T09:51:32.980Z,30.10
2022-08-14T09:54:22.562Z,30.40
2022-08-14T09:57:06.638Z,30.70
2022-08-14T09:59:56.268Z,30.90
2022-08-14T10:02:59.086Z,31.20
2022-08-14T10:05:48.417Z,30.80
2022-08-14T10:08:50.906Z,30.60
2022-08-14T10:11:37.953Z,30.80
2022-08-14T10:14:36.031Z,31.10
2022-08-14T10:17:38.341Z,31.10
2022-08-14T10:20:39.349Z,31.30
2022-08-14T10:23:20.194Z,31.60
2022-08-14T10:26:10.004Z,32.20
2022-08-14T10:29:17.840Z,32.70
2022-08-14T10:31:54.410Z,33.20
2022-08-14T10:34:43.386Z,33.00
2022-08-14T10:37:33.906Z,33.40
2022-08-14T10:40:37.907Z,33.70
2022-08-14T10:43:27.676Z,33.50
2022-08-14T10:47:35.894Z,33.30
2022-08-14T10:49:18.814Z,33.30
2022-08-14T10:52:09.323Z,33.20
2022-08-14T10:55:13.317Z,33.40
2022-08-14T10:58:00.633Z,33.60
2022-08-14T11:00:57.249Z,33.40
2022-08-14T11:03:56.071Z,33.40
2022-08-14T11:06:34.440Z,33.60
2022-08-14T11:09:22.459Z,34.00
2022-08-14T11:12:34.595Z,34.10
2022-08-14T11:15:03.152Z,34.20
2022-08-14T11:17:51.667Z,34.60
2022-08-14T11:20:40.235Z,34.60
2022-08-14T11:23:38.101Z,34.60
2022-08-14T11:26:20.423Z,34.50
2022-08-14T11:29:10.829Z,34.80
2022-08-14T11:32:00.137Z,35.00
2022-08-14T11:34:48.092Z,35.40
2022-08-14T11:37:40.627Z,35.50
2022-08-14T11:40:28.768Z,35.70
2022-08-14T11:43:17.458Z,35.50
2022-08-14T11:46:06.526Z,34.90
2022-08-14T11:49:02.800Z,34.90
2022-08-14T11:51:53.896Z,35.40
2022-08-14T11:54:36.175Z,35.70
2022-08-14T11:57:25.687Z,36.10
2022-08-14T12:00:19.517Z,36.50
2022-08-14T12:03:06.297Z,36.30
2022-08-14T12:05:55.468Z,36.10
2022-08-14T12:08:50.954Z,36.10
2022-08-14T12:11:44.154Z,36.10
2022-08-14T12:14:35.157Z,36.60
2022-08-14T12:17:23.902Z,36.80
2022-08-14T12:20:11.497Z,36.90
2022-08-14T12:23:02.176Z,36.80
2022-08-14T12:25:59.474Z,36.60
2022-08-14T12:28:59.648Z,36.40
2022-08-14T12:31:28.531Z,35.90
2022-08-14T12:34:20.015Z,36.10
2022-08-14T12:37:10.650Z,36.20
2022-08-14T12:40:11.023Z,36.40
2022-08-14T12:43:06.302Z,36.40
2022-08-14T12:45:55.687Z,36.70
2022-08-14T12:48:47.078Z,36.80
2022-08-14T12:51:35.879Z,36.70
2022-08-14T12:54:28.548Z,36.70
2022-08-14T12:57:19.901Z,36.70
2022-08-14T13:00:22.869Z,36.80
2022-08-14T13:03:08.177Z,36.50
2022-08-14T13:05:56.727Z,36.20
2022-08-14T13:08:53.241Z,36.00
2022-08-14T13:11:45.707Z,36.00
2022-08-14T13:14:36.269Z,36.30
2022-08-14T13:17:26.882Z,36.20
2022-08-14T13:20:24.493Z,35.90
2022-08-14T13:23:07.292Z,36.10
2022-08-14T13:25:55.732Z,36.30
2022-08-14T13:29:02.353Z,36.30
2022-08-14T13:31:34.490Z,36.60
2022-08-14T13:34:24.645Z,36.90
2022-08-14T13:37:12.227Z,36.90
2022-08-14T13:40:01.458Z,37.10
2022-08-14T13:42:56.772Z,37.20
2022-08-14T13:46:00.602Z,37.00
2022-08-14T13:48:36.388Z,36.50
2022-08-14T13:51:26.794Z,36.50
2022-08-14T13:54:20.057Z,36.50
2022-08-14T13:57:11.472Z,36.70
2022-08-14T14:00:02.942Z,36.10
2022-08-14T14:02:51.360Z,36.30
2022-08-14T14:05:52.962Z,36.10
2022-08-14T14:08:46.355Z,36.70
2022-08-14T14:11:23.686Z,37.00
2022-08-14T14:14:44.832Z,37.30
2022-08-14T14:17:01.801Z,37.40
2022-08-14T14:19:49.452Z,37.60
2022-08-14T14:23:01.781Z,37.70
2022-08-14T14:25:45.849Z,37.80
2022-08-14T14:28:24.584Z,38.00
2022-08-14T14:31:12.737Z,38.00
2022-08-14T14:34:07.325Z,37.50
2022-08-14T14:36:55.719Z,37.00
2022-08-14T14:40:53.138Z,36.70
2022-08-14T14:42:35.401Z,36.90
2022-08-14T14:45:24.551Z,37.00
2022-08-14T14:48:13.730Z,37.10
2022-08-14T14:51:03.008Z,37.30
2022-08-14T14:53:52.627Z,37.40
2022-08-14T14:56:48.073Z,37.30
2022-08-14T14:59:35.935Z,37.10
2022-08-14T15:02:41.358Z,37.20
2022-08-14T15:05:30.444Z,37.00
2022-08-14T15:08:26.813Z,36.70
2022-08-14T15:11:13.421Z,36.40
2022-08-14T15:13:57.653Z,36.40
2022-08-14T15:16:45.111Z,36.50
2022-08-14T15:19:32.779Z,36.70
2022-08-14T15:22:20.700Z,36.70
2022-08-14T15:25:13.343Z,36.80
2022-08-14T15:28:02.696Z,36.90
2022-08-14T15:30:58.903Z,36.70
2022-08-14T15:34:00.950Z,36.80
2022-08-14T15:36:48.632Z,37.00
2022-08-14T15:39:38.488Z,36.70
2022-08-14T15:42:25.267Z,36.70
2022-08-14T15:45:17.913Z,36.70
2022-08-14T15:48:07.910Z,36.50
2022-08-14T15:50:56.811Z,36.30
2022-08-14T15:53:46.789Z,36.20
2022-08-14T15:56:42.860Z,36.10
2022-08-14T15:59:23.040Z,35.90
2022-08-14T16:02:10.457Z,35.90
2022-08-14T16:04:58.975Z,35.70
2022-08-14T16:07:46.726Z,35.90
2022-08-14T16:10:33.956Z,36.00
2022-08-14T16:13:39.529Z,36.10
2022-08-14T16:16:47.829Z,36.20
2022-08-14T16:19:10.686Z,36.20
2022-08-14T16:22:58.274Z,36.10
2022-08-14T16:24:59.817Z,36.10
2022-08-14T16:27:45.876Z,35.80
2022-08-14T16:30:33.519Z,35.80
2022-08-14T16:33:28.012Z,36.10
2022-08-14T16:36:30.098Z,36.10
2022-08-14T16:39:08.216Z,36.10
2022-08-14T16:41:59.101Z,36.00
2022-08-14T16:44:50.508Z,35.90
2022-08-14T16:47:40.065Z,35.70
2022-08-14T16:50:43.191Z,35.70
2022-08-14T16:53:19.218Z,35.60
2022-08-14T16:56:23.453Z,35.50
2022-08-14T16:59:12.108Z,35.40
2022-08-14T17:02:01.434Z,35.40
2022-08-14T17:04:50.199Z,35.20
2022-08-14T17:07:38.888Z,35.00
2022-08-14T17:10:28.303Z,34.90
2022-08-14T17:13:58.009Z,34.80
2022-08-14T17:16:23.976Z,34.70
2022-08-14T17:19:09.974Z,34.60
2022-08-14T17:22:00.601Z,34.30
2022-08-14T17:24:56.935Z,34.20
2022-08-14T17:27:37.791Z,34.20
2022-08-14T17:30:32.436Z,34.00
2022-08-14T17:33:15.932Z,34.00
2022-08-14T17:36:22.573Z,33.90
2022-08-14T17:39:13.453Z,33.90
2022-08-14T17:42:03.561Z,33.80
2022-08-14T17:44:55.056Z,33.80
2022-08-14T17:47:44.050Z,33.70
2022-08-14T17:50:59.943Z,33.60
2022-08-14T17:53:39.198Z,33.50
2022-08-14T17:56:30.851Z,33.40
2022-08-14T17:59:19.790Z,33.30
2022-08-14T18:02:10.161Z,33.20
2022-08-14T18:05:02.805Z,33.10
2022-08-14T18:08:33.201Z,33.00
2022-08-14T18:10:56.106Z,32.70
2022-08-14T18:13:49.709Z,32.30
2022-08-14T18:16:22.386Z,31.80
2022-08-14T18:19:12.091Z,31.70
2022-08-14T18:22:03.894Z,31.40
2022-08-14T18:24:51.406Z,31.10
2022-08-14T18:27:44.382Z,30.90
2022-08-14T18:30:40.604Z,30.60
2022-08-14T18:33:23.166Z,30.40
2022-08-14T18:36:46.273Z,30.10
2022-08-14T18:39:22.771Z,29.80
2022-08-14T18:42:23.515Z,29.50
2022-08-14T18:45:18.901Z,29.40
2022-08-14T18:48:28.533Z,29.20
2022-08-14T18:51:12.842Z,29.10
2022-08-14T18:54:02.304Z,29.00
2022-08-14T18:57:00.866Z,28.90
2022-08-14T18:59:48.690Z,28.70
2022-08-14T19:02:43.472Z,28.60
2022-08-14T19:05:40.389Z,28.50
2022-08-14T19:08:40.651Z,28.40
2022-08-14T19:11:50.328Z,28.20
2022-08-14T19:14:48.475Z,28.10
2022-08-14T19:18:14.996Z,28.00
2022-08-14T19:20:53.334Z,27.90
2022-08-14T19:23:44.044Z,27.90
2022-08-14T19:26:35.606Z,27.80
2022-08-14T19:29:25.563Z,27.70
2022-08-14T19:32:36.987Z,27.80
2022-08-14T19:35:39.743Z,27.70
2022-08-14T19:38:48.269Z,27.70
2022-08-14T19:41:40.508Z,27.70
2022-08-14T19:44:32.037Z,27.70
2022-08-14T19:47:41.460Z,27.60
2022-08-14T19:50:40.483Z,27.60
2022-08-14T19:53:20.802Z,27.60
2022-08-14T19:56:08.506Z,27.50
2022-08-14T19:58:57.569Z,27.40
2022-08-14T20:01:44.708Z,27.40
2022-08-14T20:04:47.576Z,27.40
2022-08-14T20:07:59.403Z,27.50
2022-08-14T20:11:12.722Z,27.50
2022-08-14T20:13:32.617Z,27.40
2022-08-14T20:16:21.236Z,27.30
2022-08-14T20:19:24.730Z,27.20
2022-08-14T20:22:37.329Z,27.10
2022-08-14T20:25:20.726Z,27.10
2022-08-14T20:28:29.052Z,27.10
2022-08-14T20:31:17.766Z,27.00
2022-08-14T20:34:18.593Z,27.10
2022-08-14T20:37:19.818Z,27.10
2022-08-14T20:40:23.383Z,27.10
2022-08-14T20:43:40.880Z,27.00
2022-08-14T20:46:32.275Z,26.90
2022-08-14T20:49:23.647Z,26.70
2022-08-14T20:52:19.876Z,26.60
2022-08-14T20:55:02.300Z,26.40
2022-08-14T20:57:54.781Z,26.20
2022-08-14T21:00:51.829Z,25.90
2022-08-14T21:03:37.538Z,25.80
2022-08-14T21:07:23.012Z,25.80
2022-08-14T21:10:04.566Z,25.80
2022-08-14T21:12:34.221Z,25.80
2022-08-14T21:15:10.253Z,25.70
2022-08-14T21:17:57.728Z,25.70
2022-08-14T21:20:46.419Z,25.60
2022-08-14T21:23:36.467Z,25.60
2022-08-14T21:26:33.354Z,25.60
2022-08-14T21:29:18.040Z,25.50
2022-08-14T21:32:20.300Z,25.40
2022-08-14T21:34:56.433Z,25.50
2022-08-14T21:37:46.040Z,25.50
2022-08-14T21:40:42.146Z,25.60
2022-08-14T21:43:26.329Z,25.50
2022-08-14T21:46:16.016Z,25.50
2022-08-14T21:49:11.388Z,25.40
2022-08-14T21:52:48.843Z,25.30
2022-08-14T21:54:52.082Z,25.40
2022-08-14T21:58:51.082Z,25.40
2022-08-14T22:00:39.615Z,25.40
2022-08-14T22:03:26.330Z,25.30
2022-08-14T22:06:19.510Z,25.40
2022-08-14T22:09:06.812Z,25.40
2022-08-14T22:11:56.659Z,25.30
2022-08-14T22:14:45.281Z,25.30
2022-08-14T22:17:34.386Z,25.30
2022-08-14T22:20:24.996Z,25.30
2022-08-14T22:23:13.381Z,25.30
2022-08-14T22:26:00.654Z,25.30
2022-08-14T22:28:49.507Z,25.30
2022-08-14T22:31:43.902Z,25.30
2022-08-14T22:34:32.090Z,25.30
2022-08-14T22:37:19.500Z,25.30
2022-08-14T22:40:46.145Z,25.30
2022-08-14T22:43:01.258Z,25.20
2022-08-14T22:45:55.512Z,25.10
2022-08-14T22:48:38.980Z,25.00
2022-08-14T22:51:27.541Z,24.80
2022-08-14T22:54:52.680Z,24.80
2022-08-14T22:57:06.341Z,24.90
2022-08-14T22:59:55.296Z,24.90
2022-08-14T23:02:43.554Z,24.80
2022-08-14T23:05:40.072Z,24.70
2022-08-14T23:08:59.358Z,24.80
2022-08-14T23:11:11.413Z,24.90
2022-08-14T23:14:00.953Z,24.90
2022-08-14T23:16:48.614Z,24.90
2022-08-14T23:19:36.105Z,24.80
2022-08-14T23:22:24.239Z,24.70
2022-08-14T23:25:17.773Z,24.70
2022-08-14T23:28:05.310Z,24.70
2022-08-14T23:30:55.260Z,24.70
2022-08-14T23:33:46.020Z,24.80
2022-08-14T23:36:38.031Z,24.90
2022-08-14T23:39:30.397Z,25.00
2022-08-14T23:42:17.981Z,25.10
2022-08-14T23:45:07.374Z,25.00
2022-08-14T23:47:54.520Z,24.80
2022-08-14T23:50:44.438Z,24.50
2022-08-14T23:53:47.944Z,24.40
2022-08-14T23:56:31.906Z,24.50
2022-08-14T23:59:15.952Z,24.50
